createdAt,value
2023-02-17T00:00:07.299Z,22.08
2023-02-17T00:01:29.445Z,23.50
2023-02-17T00:02:49.988Z,23.50
2023-02-17T00:04:10.810Z,24.10
2023-02-17T00:05:31.684Z,22.63
2023-02-17T00:06:52.628Z,25.20
2023-02-17T00:08:13.667Z,21.33
2023-02-17T00:09:34.301Z,24.20
2023-02-17T00:10:56.713Z,24.80
2023-02-17T00:12:19.132Z,26.13
2023-02-17T00:13:39.860Z,24.70
2023-02-17T00:15:00.426Z,29.02
2023-02-17T00:16:22.512Z,25.85
2023-02-17T00:17:43.141Z,25.30
2023-02-17T00:19:04.132Z,25.77
2023-02-17T00:20:24.757Z,28.92
2023-02-17T00:21:45.521Z,28.00
2023-02-17T00:23:06.226Z,28.67
2023-02-17T00:24:29.786Z,31.67
2023-02-17T00:25:50.458Z,28.30
2023-02-17T00:27:11.200Z,28.27
2023-02-17T00:28:33.871Z,24.48
2023-02-17T00:29:54.519Z,26.40
2023-02-17T00:31:17.933Z,27.33
2023-02-17T00:32:38.631Z,27.65
2023-02-17T00:33:59.527Z,25.98
2023-02-17T00:35:20.357Z,26.67
2023-02-17T00:36:41.131Z,28.05
2023-02-17T00:38:01.599Z,29.30
2023-02-17T00:39:22.621Z,27.85
2023-02-17T00:40:43.167Z,25.93
2023-02-17T00:42:03.922Z,24.23
2023-02-17T00:43:24.803Z,24.30
2023-02-17T00:44:46.809Z,23.67
2023-02-17T00:46:07.872Z,24.90
2023-02-17T00:47:28.918Z,22.65
2023-02-17T00:48:50.167Z,26.48
2023-02-17T00:50:11.118Z,23.65
2023-02-17T00:51:32.023Z,27.40
2023-02-17T00:52:52.838Z,25.87
2023-02-17T00:54:13.809Z,25.25
2023-02-17T00:55:34.405Z,26.33
2023-02-17T00:56:55.332Z,27.02
2023-02-17T00:58:16.370Z,31.73
2023-02-17T00:59:37.278Z,29.13
2023-02-17T01:01:01.026Z,28.23
2023-02-17T01:02:21.857Z,36.70
2023-02-17T01:03:42.604Z,28.75
2023-02-17T01:05:03.470Z,30.77
2023-02-17T01:06:25.802Z,26.35
2023-02-17T01:07:46.657Z,29.33
2023-02-17T01:09:09.084Z,27.23
2023-02-17T01:10:29.656Z,26.60
2023-02-17T01:11:51.130Z,28.40
2023-02-17T01:13:12.732Z,31.83
2023-02-17T01:14:33.798Z,25.33
2023-02-17T01:15:54.670Z,27.30
2023-02-17T01:17:18.918Z,28.08
2023-02-17T01:18:39.433Z,32.53
2023-02-17T01:20:00.153Z,27.10
2023-02-17T01:21:23.313Z,26.55
2023-02-17T01:22:44.249Z,29.63
2023-02-17T01:24:06.931Z,30.00
2023-02-17T01:25:27.582Z,26.13
2023-02-17T01:26:48.796Z,29.40
2023-02-17T01:28:11.244Z,27.85
2023-02-17T01:29:32.100Z,28.23
2023-02-17T01:30:52.571Z,27.83
2023-02-17T01:32:13.219Z,25.48
2023-02-17T01:33:35.541Z,25.58
2023-02-17T01:34:56.112Z,24.35
2023-02-17T01:36:19.986Z,25.42
2023-02-17T01:37:40.549Z,24.52
2023-02-17T01:39:01.480Z,22.95
2023-02-17T01:40:22.521Z,25.10
2023-02-17T01:41:44.061Z,23.55
2023-02-17T01:43:06.333Z,21.98
2023-02-17T01:44:26.928Z,22.55
2023-02-17T01:45:51.218Z,21.52
2023-02-17T01:47:13.146Z,24.30
2023-02-17T01:48:38.187Z,24.95
2023-02-17T01:49:58.873Z,26.02
2023-02-17T01:51:22.644Z,31.63
2023-02-17T01:52:43.717Z,31.80
2023-02-17T01:54:06.904Z,33.13
2023-02-17T01:55:27.728Z,35.97
2023-02-17T01:56:49.298Z,35.22
2023-02-17T01:58:12.387Z,35.00
2023-02-17T01:59:33.486Z,29.35
2023-02-17T02:00:56.402Z,30.98
2023-02-17T02:02:17.419Z,29.23
2023-02-17T02:05:00.886Z,30.23
2023-02-17T02:06:24.948Z,32.22
2023-02-17T02:07:46.735Z,28.90
2023-02-17T02:09:09.652Z,30.30
2023-02-17T02:10:30.621Z,32.05
2023-02-17T02:11:51.425Z,29.67
2023-02-17T02:13:12.701Z,30.75
2023-02-17T02:14:33.187Z,28.73
2023-02-17T02:15:59.768Z,29.05
2023-02-17T02:17:33.108Z,30.55
2023-02-17T02:19:00.144Z,27.73
2023-02-17T02:20:43.605Z,28.95
2023-02-17T02:22:22.248Z,27.35
2023-02-17T02:23:59.249Z,29.33
2023-02-17T02:25:32.930Z,29.98
2023-02-17T02:27:25.554Z,28.02
2023-02-17T02:29:00.697Z,30.90
2023-02-17T02:30:45.052Z,26.70
2023-02-17T02:32:22.450Z,28.02
2023-02-17T02:33:47.526Z,26.27
2023-02-17T02:35:12.902Z,27.58
2023-02-17T02:36:36.788Z,27.30
2023-02-17T02:38:01.501Z,30.15
2023-02-17T02:39:25.071Z,34.90
2023-02-17T02:40:49.973Z,34.25
2023-02-17T02:42:14.854Z,35.28
2023-02-17T02:43:35.839Z,38.67
2023-02-17T02:44:56.648Z,32.28
2023-02-17T02:46:17.662Z,31.67
2023-02-17T02:47:48.538Z,34.03
2023-02-17T02:49:09.562Z,33.90
2023-02-17T02:50:40.895Z,30.08
2023-02-17T02:52:05.930Z,32.70
2023-02-17T02:53:48.976Z,33.13
2023-02-17T02:55:14.940Z,32.08
2023-02-17T02:56:46.061Z,31.75
2023-02-17T02:58:11.424Z,30.67
2023-02-17T02:59:44.474Z,32.80
2023-02-17T03:01:11.956Z,34.28
2023-02-17T03:02:37.844Z,33.80
2023-02-17T03:04:06.699Z,27.38
2023-02-17T03:05:33.007Z,33.47
2023-02-17T03:06:57.294Z,32.95
2023-02-17T03:08:20.889Z,37.30
2023-02-17T03:09:41.854Z,34.63
2023-02-17T03:11:03.889Z,38.25
2023-02-17T03:12:25.159Z,39.53
2023-02-17T03:13:45.876Z,37.90
2023-02-17T03:15:12.727Z,35.50
2023-02-17T03:16:33.649Z,38.25
2023-02-17T03:17:56.833Z,34.65
2023-02-17T03:19:23.732Z,32.33
2023-02-17T03:20:48.350Z,32.08
2023-02-17T03:22:12.044Z,29.98
2023-02-17T03:23:32.911Z,28.08
2023-02-17T03:24:53.525Z,32.13
2023-02-17T03:26:14.307Z,30.50
2023-02-17T03:27:34.920Z,33.97
2023-02-17T03:28:55.978Z,33.42
2023-02-17T03:30:16.703Z,35.58
2023-02-17T03:31:38.034Z,31.50
2023-02-17T03:32:58.713Z,27.67
2023-02-17T03:34:20.640Z,33.17
2023-02-17T03:35:41.386Z,31.42
2023-02-17T03:37:02.189Z,30.05
2023-02-17T03:38:23.495Z,33.28
2023-02-17T03:39:43.967Z,35.72
2023-02-17T03:41:04.846Z,29.88
2023-02-17T03:42:26.045Z,31.08
2023-02-17T03:43:46.697Z,30.50
2023-02-17T03:45:08.462Z,29.58
2023-02-17T03:46:29.214Z,31.77
2023-02-17T03:47:50.029Z,36.92
2023-02-17T03:49:12.951Z,33.88
2023-02-17T03:50:35.355Z,33.22
2023-02-17T03:51:56.254Z,37.63
2023-02-17T03:53:17.031Z,34.35
2023-02-17T03:54:37.605Z,35.80
2023-02-17T03:55:58.563Z,33.90
2023-02-17T03:57:19.203Z,36.47
2023-02-17T03:58:40.467Z,35.13
2023-02-17T04:00:01.432Z,33.05
2023-02-17T04:01:22.476Z,35.65
2023-02-17T04:02:44.309Z,32.95
2023-02-17T04:04:05.065Z,32.85
2023-02-17T04:05:25.996Z,33.20
2023-02-17T04:06:48.036Z,30.47
2023-02-17T04:08:08.918Z,33.20
2023-02-17T04:09:29.375Z,33.25
2023-02-17T04:10:52.215Z,35.92
2023-02-17T04:12:13.169Z,30.30
2023-02-17T04:13:34.236Z,35.50
2023-02-17T04:14:54.787Z,29.85
2023-02-17T04:16:15.642Z,33.40
2023-02-17T04:17:36.779Z,32.47
2023-02-17T04:18:57.380Z,35.00
2023-02-17T04:20:18.392Z,34.28
2023-02-17T04:21:38.937Z,36.27
2023-02-17T04:23:01.125Z,37.10
2023-02-17T04:24:22.046Z,31.65
2023-02-17T04:25:42.935Z,34.70
2023-02-17T04:27:04.729Z,35.72
2023-02-17T04:28:25.261Z,32.78
2023-02-17T04:29:45.761Z,35.25
2023-02-17T04:31:06.532Z,35.00
2023-02-17T04:32:27.265Z,33.20
2023-02-17T04:33:48.182Z,27.05
2023-02-17T04:35:08.843Z,28.35
2023-02-17T04:36:29.365Z,29.58
2023-02-17T04:37:50.429Z,29.50
2023-02-17T04:39:12.681Z,29.27
2023-02-17T04:40:34.028Z,30.48
2023-02-17T04:41:55.004Z,30.10
2023-02-17T04:43:15.753Z,31.20
2023-02-17T04:44:36.231Z,33.97
2023-02-17T04:45:57.614Z,31.42
2023-02-17T04:47:18.840Z,31.85
2023-02-17T04:48:39.660Z,29.98
2023-02-17T04:50:00.667Z,34.17
2023-02-17T04:51:21.110Z,35.88
2023-02-17T04:52:41.739Z,36.53
2023-02-17T04:54:02.453Z,34.95
2023-02-17T04:55:24.396Z,37.60
2023-02-17T04:56:45.148Z,34.10
2023-02-17T04:58:05.872Z,32.97
2023-02-17T04:59:26.571Z,36.10
2023-02-17T05:00:48.524Z,36.38
2023-02-17T05:02:09.556Z,33.47
2023-02-17T05:03:30.396Z,35.03
2023-02-17T05:04:51.200Z,40.35
2023-02-17T05:06:12.453Z,40.05
2023-02-17T05:07:33.255Z,30.92
2023-02-17T05:08:53.906Z,32.03
2023-02-17T05:10:15.597Z,32.63
2023-02-17T05:11:37.595Z,33.35
2023-02-17T05:12:58.109Z,32.55
2023-02-17T05:14:18.810Z,35.20
2023-02-17T05:15:39.517Z,32.53
2023-02-17T05:17:00.426Z,32.15
2023-02-17T05:18:22.177Z,40.70
2023-02-17T05:19:42.541Z,36.85
2023-02-17T05:21:03.562Z,35.60
2023-02-17T05:22:24.534Z,37.42
2023-02-17T05:23:45.631Z,35.90
2023-02-17T05:25:06.898Z,43.60
2023-02-17T05:26:27.487Z,45.30
2023-02-17T05:27:49.639Z,42.87
2023-02-17T05:29:10.206Z,41.65
2023-02-17T05:30:30.780Z,43.50
2023-02-17T05:31:51.326Z,40.30
2023-02-17T05:33:12.110Z,44.78
2023-02-17T05:34:33.142Z,45.92
2023-02-17T05:35:53.673Z,45.90
2023-02-17T05:37:14.218Z,42.65
2023-02-17T05:38:35.670Z,40.47
2023-02-17T05:39:56.257Z,42.72
2023-02-17T05:41:17.548Z,45.05
2023-02-17T05:42:38.146Z,40.03
2023-02-17T05:44:00.235Z,39.60
2023-02-17T05:45:20.705Z,44.33
2023-02-17T05:46:41.495Z,41.85
2023-02-17T05:48:02.367Z,40.80
2023-02-17T05:49:23.305Z,38.35
2023-02-17T05:50:43.843Z,36.13
2023-02-17T05:52:05.205Z,38.40
2023-02-17T05:53:26.017Z,44.20
2023-02-17T05:54:46.816Z,35.30
2023-02-17T05:56:07.886Z,38.75
2023-02-17T05:57:28.839Z,42.72
2023-02-17T05:58:49.636Z,39.30
2023-02-17T06:00:13.230Z,39.78
2023-02-17T06:01:34.428Z,38.03
2023-02-17T06:02:56.013Z,33.92
2023-02-17T06:04:16.847Z,34.22
2023-02-17T06:05:37.766Z,32.22
2023-02-17T06:06:58.483Z,33.28
2023-02-17T06:08:19.492Z,32.55
2023-02-17T06:09:40.274Z,30.85
2023-02-17T06:11:00.956Z,31.08
2023-02-17T06:12:21.858Z,30.63
2023-02-17T06:13:42.699Z,31.00
2023-02-17T06:15:03.921Z,27.17
2023-02-17T06:16:25.878Z,26.75
2023-02-17T06:17:46.632Z,25.33
2023-02-17T06:19:07.285Z,25.90
2023-02-17T06:20:28.167Z,24.23
2023-02-17T06:21:48.797Z,27.08
2023-02-17T06:23:09.695Z,24.17
2023-02-17T06:24:30.500Z,24.25
2023-02-17T06:25:51.332Z,26.70
2023-02-17T06:27:12.124Z,28.02
2023-02-17T06:28:34.791Z,29.45
2023-02-17T06:29:55.700Z,28.55
2023-02-17T06:32:34.449Z,25.50
2023-02-17T06:33:54.959Z,24.58
2023-02-17T06:35:15.994Z,24.63
2023-02-17T06:36:36.310Z,24.58
2023-02-17T06:37:56.915Z,27.25
2023-02-17T06:39:17.451Z,26.13
2023-02-17T06:40:38.257Z,29.27
2023-02-17T06:41:59.067Z,26.13
2023-02-17T06:43:19.805Z,27.80
2023-02-17T06:44:41.421Z,27.00
2023-02-17T06:46:02.476Z,23.88
2023-02-17T06:47:23.284Z,22.95
2023-02-17T06:48:45.120Z,23.50
2023-02-17T06:50:07.281Z,26.20
2023-02-17T06:51:27.712Z,24.02
2023-02-17T06:52:48.623Z,25.27
2023-02-17T06:54:09.477Z,23.08
2023-02-17T06:55:30.240Z,26.52
2023-02-17T06:56:51.547Z,25.50
2023-02-17T06:58:11.990Z,20.73
2023-02-17T06:59:32.955Z,24.10
2023-02-17T07:00:53.593Z,20.07
2023-02-17T07:02:15.070Z,17.90
2023-02-17T07:03:35.539Z,17.30
2023-02-17T07:04:57.644Z,17.60
2023-02-17T07:06:18.102Z,16.95
2023-02-17T07:07:38.381Z,17.05
2023-02-17T07:08:59.005Z,16.80
2023-02-17T07:10:19.928Z,16.55
2023-02-17T07:11:40.903Z,17.80
2023-02-17T07:13:02.124Z,19.25
2023-02-17T07:14:24.891Z,19.70
2023-02-17T07:15:48.360Z,21.45
2023-02-17T07:17:08.872Z,21.63
2023-02-17T07:18:29.550Z,20.33
2023-02-17T07:19:50.612Z,19.50
2023-02-17T07:21:12.826Z,17.40
2023-02-17T07:22:33.330Z,20.80
2023-02-17T07:24:07.223Z,21.40
2023-02-17T07:25:28.135Z,20.02
2023-02-17T07:26:48.749Z,19.85
2023-02-17T07:28:09.647Z,20.35
2023-02-17T07:29:30.361Z,21.73
2023-02-17T07:30:51.144Z,21.73
2023-02-17T07:32:12.105Z,18.33
2023-02-17T07:33:33.004Z,17.23
2023-02-17T07:34:53.321Z,17.65
2023-02-17T07:36:16.517Z,17.48
2023-02-17T07:37:37.376Z,15.27
2023-02-17T07:38:58.150Z,18.05
2023-02-17T07:40:19.116Z,18.88
2023-02-17T07:41:39.436Z,16.45
2023-02-17T07:42:59.980Z,14.85
2023-02-17T07:44:20.350Z,16.27
2023-02-17T07:45:40.833Z,15.65
2023-02-17T07:47:01.795Z,17.67
2023-02-17T07:48:22.491Z,16.08
2023-02-17T07:49:43.194Z,17.58
2023-02-17T07:51:07.327Z,19.90
2023-02-17T07:52:29.559Z,20.00
2023-02-17T07:53:51.534Z,20.92
2023-02-17T07:55:12.042Z,22.05
2023-02-17T07:56:32.515Z,22.45
2023-02-17T07:57:53.276Z,20.52
2023-02-17T07:59:14.213Z,24.45
2023-02-17T08:00:34.713Z,21.27
2023-02-17T08:01:55.632Z,20.48
2023-02-17T08:03:16.128Z,19.27
2023-02-17T08:04:36.716Z,20.73
2023-02-17T08:05:57.227Z,19.73
2023-02-17T08:07:18.084Z,20.58
2023-02-17T08:08:40.431Z,18.45
2023-02-17T08:10:01.610Z,19.48
2023-02-17T08:11:22.147Z,20.05
2023-02-17T08:12:42.703Z,18.00
2023-02-17T08:14:03.376Z,21.90
2023-02-17T08:15:24.189Z,20.67
2023-02-17T08:16:45.180Z,18.42
2023-02-17T08:18:05.854Z,18.08
2023-02-17T08:19:31.754Z,19.95
2023-02-17T08:21:01.471Z,19.27
2023-02-17T08:22:21.988Z,17.05
2023-02-17T08:23:45.454Z,17.00
2023-02-17T08:25:06.614Z,15.73
2023-02-17T08:26:27.239Z,18.55
2023-02-17T08:27:47.873Z,18.85
2023-02-17T08:29:08.806Z,15.73
2023-02-17T08:30:29.629Z,17.50
2023-02-17T08:31:52.694Z,16.40
2023-02-17T08:33:13.645Z,16.23
2023-02-17T08:34:34.262Z,15.70
2023-02-17T08:35:54.702Z,17.98
2023-02-17T08:37:15.513Z,15.88
2023-02-17T08:38:36.110Z,16.67
2023-02-17T08:40:00.506Z,16.47
2023-02-17T08:41:22.745Z,17.75
2023-02-17T08:42:43.566Z,17.52
2023-02-17T08:44:07.976Z,17.02
2023-02-17T08:45:28.462Z,15.60
2023-02-17T08:46:50.629Z,16.20
2023-02-17T08:48:11.038Z,15.60
2023-02-17T08:49:31.943Z,16.30
2023-02-17T08:50:52.482Z,16.15
2023-02-17T08:52:12.895Z,17.95
2023-02-17T08:53:34.105Z,16.33
2023-02-17T08:54:54.808Z,15.65
2023-02-17T08:56:16.803Z,16.58
2023-02-17T08:57:37.375Z,17.20
2023-02-17T08:58:58.169Z,15.73
2023-02-17T09:00:19.150Z,16.48
2023-02-17T09:01:40.456Z,15.50
2023-02-17T09:03:02.105Z,15.30
2023-02-17T09:04:22.889Z,17.15
2023-02-17T09:05:43.743Z,17.17
2023-02-17T09:07:04.221Z,16.77
2023-02-17T09:08:25.436Z,15.95
2023-02-17T09:09:46.141Z,14.10
2023-02-17T09:11:09.444Z,14.82
2023-02-17T09:12:31.480Z,15.20
2023-02-17T09:13:52.056Z,15.68
2023-02-17T09:15:12.625Z,15.27
2023-02-17T09:16:33.932Z,13.98
2023-02-17T09:17:54.762Z,13.43
2023-02-17T09:19:15.685Z,14.90
2023-02-17T09:20:36.854Z,16.88
2023-02-17T09:21:57.451Z,13.55
2023-02-17T09:23:18.376Z,14.02
2023-02-17T09:24:40.122Z,15.90
2023-02-17T09:26:03.677Z,15.90
2023-02-17T09:27:24.570Z,14.07
2023-02-17T09:28:47.192Z,15.88
2023-02-17T09:30:08.804Z,14.50
2023-02-17T09:31:30.021Z,16.02
2023-02-17T09:32:50.812Z,16.65
2023-02-17T09:34:11.752Z,16.88
2023-02-17T09:35:33.035Z,16.33
2023-02-17T09:36:53.804Z,17.65
2023-02-17T09:38:14.548Z,17.33
2023-02-17T09:39:35.387Z,14.32
2023-02-17T09:40:59.589Z,14.77
2023-02-17T09:42:23.527Z,13.77
2023-02-17T09:43:45.986Z,15.43
2023-02-17T09:45:11.891Z,13.45
2023-02-17T09:46:36.885Z,13.05
2023-02-17T09:48:00.339Z,12.75
2023-02-17T09:49:24.818Z,13.40
2023-02-17T09:50:49.168Z,11.65
2023-02-17T09:52:14.425Z,12.30
2023-02-17T09:53:38.423Z,10.88
2023-02-17T09:55:04.470Z,12.77
2023-02-17T09:56:32.563Z,11.80
2023-02-17T09:57:56.532Z,12.00
2023-02-17T09:59:20.361Z,11.02
2023-02-17T10:00:43.931Z,11.57
2023-02-17T10:02:07.367Z,11.38
2023-02-17T10:03:32.033Z,11.75
2023-02-17T10:04:53.592Z,12.40
2023-02-17T10:06:17.371Z,10.77
2023-02-17T10:07:44.055Z,11.93
2023-02-17T10:09:11.906Z,11.15
2023-02-17T10:10:39.726Z,11.20
2023-02-17T10:12:02.921Z,10.98
2023-02-17T10:13:25.317Z,9.93
2023-02-17T10:14:52.015Z,9.98
2023-02-17T10:16:19.542Z,12.02
2023-02-17T10:17:44.473Z,10.10
2023-02-17T10:19:10.840Z,11.15
2023-02-17T10:20:33.811Z,11.25
2023-02-17T10:22:02.076Z,10.98
2023-02-17T10:23:24.552Z,10.00
2023-02-17T10:24:45.449Z,9.23
2023-02-17T10:26:22.140Z,9.05
2023-02-17T10:27:44.757Z,9.13
2023-02-17T10:29:07.099Z,9.80
2023-02-17T10:30:34.559Z,8.63
2023-02-17T10:32:05.082Z,8.90
2023-02-17T10:33:29.436Z,9.32
2023-02-17T10:35:08.545Z,10.48
2023-02-17T10:36:36.279Z,9.05
2023-02-17T10:38:00.044Z,9.57
2023-02-17T10:39:32.100Z,10.13
2023-02-17T10:40:54.938Z,8.82
2023-02-17T10:42:20.709Z,8.93
2023-02-17T10:43:42.773Z,9.93
2023-02-17T10:45:05.365Z,9.73
2023-02-17T10:46:28.918Z,8.93
2023-02-17T10:47:59.203Z,9.75
2023-02-17T10:49:25.200Z,10.05
2023-02-17T10:50:46.754Z,9.13
2023-02-17T10:52:17.594Z,8.25
2023-02-17T10:53:39.359Z,9.48
2023-02-17T10:55:08.759Z,10.25
2023-02-17T10:56:43.801Z,9.65
2023-02-17T10:58:10.481Z,10.00
2023-02-17T10:59:34.334Z,10.70
2023-02-17T11:00:55.980Z,8.95
2023-02-17T11:02:20.521Z,9.98
2023-02-17T11:03:42.170Z,10.60
2023-02-17T11:06:23.843Z,9.27
2023-02-17T11:07:45.230Z,9.80
2023-02-17T11:09:07.085Z,10.25
2023-02-17T11:10:30.331Z,8.70
2023-02-17T11:11:55.331Z,8.50
2023-02-17T11:13:30.688Z,8.25
2023-02-17T11:14:54.354Z,9.38
2023-02-17T11:16:22.440Z,8.80
2023-02-17T11:17:45.056Z,9.35
2023-02-17T11:19:06.435Z,8.77
2023-02-17T11:21:51.086Z,8.60
2023-02-17T11:23:23.522Z,8.02
2023-02-17T11:24:44.299Z,7.25
2023-02-17T11:26:10.170Z,7.63
2023-02-17T11:27:30.936Z,9.10
2023-02-17T11:28:51.627Z,8.93
2023-02-17T11:30:17.157Z,8.43
2023-02-17T11:31:38.246Z,9.05
2023-02-17T11:33:11.621Z,9.10
2023-02-17T11:34:33.565Z,8.45
2023-02-17T11:35:54.767Z,8.25
2023-02-17T11:37:21.373Z,9.00
2023-02-17T11:38:45.522Z,9.02
2023-02-17T11:40:26.348Z,9.85
2023-02-17T11:41:47.238Z,8.75
2023-02-17T11:43:08.136Z,10.10
2023-02-17T11:44:29.441Z,9.02
2023-02-17T11:45:59.192Z,9.80
2023-02-17T11:47:30.102Z,9.02
2023-02-17T11:49:02.925Z,8.85
2023-02-17T11:50:40.352Z,9.38
2023-02-17T11:52:16.623Z,10.35
2023-02-17T11:53:47.340Z,8.43
2023-02-17T11:55:18.619Z,9.90
2023-02-17T11:56:42.044Z,9.60
2023-02-17T11:58:17.087Z,8.30
2023-02-17T11:59:51.686Z,8.32
2023-02-17T12:01:22.996Z,9.40
2023-02-17T12:03:08.347Z,9.38
2023-02-17T12:04:32.232Z,9.68
2023-02-17T12:06:01.812Z,8.93
2023-02-17T12:07:34.945Z,8.60
2023-02-17T12:09:03.945Z,7.85
2023-02-17T12:10:32.665Z,8.27
2023-02-17T12:11:59.099Z,8.05
2023-02-17T12:13:29.417Z,8.30
2023-02-17T12:15:03.650Z,8.13
2023-02-17T12:16:39.148Z,8.20
2023-02-17T12:18:07.883Z,7.80
2023-02-17T12:19:46.118Z,7.47
2023-02-17T12:21:09.999Z,7.25
2023-02-17T12:22:35.529Z,6.65
2023-02-17T12:24:07.452Z,6.70
2023-02-17T12:26:50.927Z,7.32
2023-02-17T12:28:30.528Z,6.82
2023-02-17T12:30:05.572Z,6.88
2023-02-17T12:31:43.206Z,6.82
2023-02-17T12:33:39.027Z,7.57
2023-02-17T12:35:10.274Z,7.15
2023-02-17T12:36:33.358Z,6.72
2023-02-17T12:37:56.706Z,7.32
2023-02-17T12:39:21.359Z,8.10
2023-02-17T12:40:45.040Z,7.03
2023-02-17T12:42:10.077Z,7.32
2023-02-17T12:43:35.001Z,6.60
2023-02-17T12:44:58.003Z,7.75
2023-02-17T12:46:23.499Z,7.50
2023-02-17T12:47:50.075Z,7.63
2023-02-17T12:49:13.634Z,7.70
2023-02-17T12:50:38.507Z,7.13
2023-02-17T12:52:04.001Z,8.07
2023-02-17T12:53:37.255Z,7.63
2023-02-17T12:55:00.331Z,8.63
2023-02-17T12:56:47.423Z,7.75
2023-02-17T12:58:12.273Z,7.78
2023-02-17T12:59:34.386Z,7.53
2023-02-17T13:00:58.687Z,7.63
2023-02-17T13:02:20.372Z,8.55
2023-02-17T13:03:40.726Z,8.45
2023-02-17T13:05:02.435Z,8.02
2023-02-17T13:06:27.683Z,7.70
2023-02-17T13:07:49.803Z,8.30
2023-02-17T13:09:17.872Z,8.45
2023-02-17T13:10:40.182Z,7.97
2023-02-17T13:12:30.307Z,8.15
2023-02-17T13:13:51.164Z,7.10
2023-02-17T13:15:31.130Z,7.72
2023-02-17T13:16:52.163Z,7.55
2023-02-17T13:18:14.281Z,6.78
2023-02-17T13:19:35.589Z,8.93
2023-02-17T13:20:58.652Z,7.55
2023-02-17T13:22:23.451Z,7.25
2023-02-17T13:23:46.072Z,8.35
2023-02-17T13:25:10.230Z,7.38
2023-02-17T13:26:32.294Z,7.20
2023-02-17T13:27:53.172Z,6.95
2023-02-17T13:29:32.944Z,7.50
2023-02-17T13:30:55.798Z,7.43
2023-02-17T13:32:27.454Z,7.18
2023-02-17T13:33:49.617Z,7.63
2023-02-17T13:35:30.835Z,8.48
2023-02-17T13:36:51.945Z,8.63
2023-02-17T13:38:13.944Z,7.63
2023-02-17T13:39:36.951Z,7.57
2023-02-17T13:41:00.089Z,7.88
2023-02-17T13:42:39.072Z,7.25
2023-02-17T13:43:59.548Z,8.93
2023-02-17T13:45:25.244Z,7.70
2023-02-17T13:46:46.550Z,8.20
2023-02-17T13:48:13.790Z,7.10
2023-02-17T13:49:34.460Z,7.53
2023-02-17T13:50:56.557Z,7.80
2023-02-17T13:52:19.499Z,7.57
2023-02-17T13:53:42.368Z,7.47
2023-02-17T13:55:05.168Z,7.53
2023-02-17T13:56:26.955Z,7.18
2023-02-17T13:57:52.536Z,7.18
2023-02-17T13:59:16.535Z,8.55
2023-02-17T14:00:36.860Z,7.43
2023-02-17T14:01:57.484Z,7.28
2023-02-17T14:03:21.729Z,6.18
2023-02-17T14:04:43.785Z,7.43
2023-02-17T14:06:05.043Z,8.30
2023-02-17T14:07:26.140Z,8.90
2023-02-17T14:08:48.273Z,7.30
2023-02-17T14:10:20.189Z,7.38
2023-02-17T14:11:40.693Z,7.90
2023-02-17T14:13:01.360Z,6.65
2023-02-17T14:14:24.160Z,7.33
2023-02-17T14:15:53.575Z,7.80
2023-02-17T14:17:27.065Z,6.32
2023-02-17T14:18:47.856Z,8.38
2023-02-17T14:20:27.578Z,7.13
2023-02-17T14:21:59.112Z,7.28
2023-02-17T14:23:19.567Z,7.22
2023-02-17T14:24:41.796Z,7.82
2023-02-17T14:26:09.926Z,8.15
2023-02-17T14:27:41.028Z,6.50
2023-02-17T14:29:03.080Z,7.20
2023-02-17T14:30:32.551Z,7.53
2023-02-17T14:31:53.761Z,7.18
2023-02-17T14:33:23.090Z,7.60
2023-02-17T14:34:43.912Z,6.60
2023-02-17T14:36:06.315Z,6.70
2023-02-17T14:37:27.355Z,7.32
2023-02-17T14:38:54.899Z,7.33
2023-02-17T14:40:18.802Z,7.47
2023-02-17T14:41:39.319Z,6.72
2023-02-17T14:43:00.005Z,8.55
2023-02-17T14:44:20.626Z,6.43
2023-02-17T14:45:41.518Z,7.53
2023-02-17T14:47:01.806Z,7.65
2023-02-17T14:48:22.512Z,7.22
2023-02-17T14:49:42.888Z,7.95
2023-02-17T14:51:03.375Z,7.78
2023-02-17T14:52:25.071Z,8.57
2023-02-17T14:55:13.116Z,6.85
2023-02-17T14:56:36.453Z,8.88
2023-02-17T14:57:57.356Z,6.78
2023-02-17T14:59:18.050Z,7.20
2023-02-17T15:00:38.958Z,9.40
2023-02-17T15:01:59.883Z,7.40
2023-02-17T15:03:21.783Z,6.78
2023-02-17T15:04:42.285Z,6.65
2023-02-17T15:06:03.485Z,6.95
2023-02-17T15:07:24.269Z,6.63
2023-02-17T15:08:45.709Z,7.63
2023-02-17T15:11:32.290Z,7.68
2023-02-17T15:12:54.722Z,6.90
2023-02-17T15:14:16.395Z,6.03
2023-02-17T15:15:37.066Z,7.95
2023-02-17T15:16:57.791Z,6.65
2023-02-17T15:18:19.592Z,7.65
2023-02-17T15:21:00.428Z,7.88
2023-02-17T15:22:21.179Z,6.72
2023-02-17T15:23:41.521Z,6.20
2023-02-17T15:25:02.296Z,6.63
2023-02-17T15:26:23.280Z,6.65
2023-02-17T15:27:44.627Z,6.68
2023-02-17T15:29:06.549Z,6.95
2023-02-17T15:30:28.554Z,7.82
2023-02-17T15:31:50.380Z,7.65
2023-02-17T15:33:12.747Z,7.55
2023-02-17T15:34:33.786Z,6.47
2023-02-17T15:35:54.723Z,7.07
2023-02-17T15:37:15.648Z,6.55
2023-02-17T15:38:36.537Z,7.32
2023-02-17T15:39:57.720Z,7.45
2023-02-17T15:41:20.489Z,7.38
2023-02-17T15:42:41.010Z,5.90
2023-02-17T15:44:02.070Z,6.85
2023-02-17T15:45:24.454Z,6.00
2023-02-17T15:46:45.415Z,6.50
2023-02-17T15:48:08.380Z,6.93
2023-02-17T15:49:29.077Z,7.97
2023-02-17T15:50:50.224Z,6.43
2023-02-17T15:52:11.665Z,7.20
2023-02-17T15:54:52.510Z,7.03
2023-02-17T15:56:16.074Z,7.40
2023-02-17T15:57:38.113Z,6.22
2023-02-17T15:58:59.803Z,7.20
2023-02-17T16:01:42.684Z,6.82
2023-02-17T16:03:03.501Z,6.55
2023-02-17T16:04:23.832Z,6.30
2023-02-17T16:05:44.693Z,7.70
2023-02-17T16:07:05.570Z,6.90
2023-02-17T16:08:26.082Z,7.63
2023-02-17T16:09:46.803Z,7.65
2023-02-17T16:11:09.984Z,6.53
2023-02-17T16:12:30.748Z,7.65
2023-02-17T16:13:51.755Z,7.43
2023-02-17T16:15:14.392Z,6.43
2023-02-17T16:16:35.160Z,6.70
2023-02-17T16:17:57.647Z,7.45
2023-02-17T16:19:18.506Z,7.68
2023-02-17T16:20:39.294Z,6.60
2023-02-17T16:22:00.060Z,6.63
2023-02-17T16:23:20.672Z,6.38
2023-02-17T16:24:41.517Z,6.53
2023-02-17T16:26:02.106Z,7.28
2023-02-17T16:27:22.755Z,7.22
2023-02-17T16:28:43.732Z,7.77
2023-02-17T16:30:15.775Z,8.50
2023-02-17T16:31:36.344Z,6.55
2023-02-17T16:32:58.392Z,6.78
2023-02-17T16:34:20.430Z,7.63
2023-02-17T16:35:41.520Z,8.23
2023-02-17T16:37:04.056Z,7.32
2023-02-17T16:38:25.146Z,6.32
2023-02-17T16:39:46.215Z,6.93
2023-02-17T16:41:06.852Z,6.93
2023-02-17T16:42:27.756Z,7.10
2023-02-17T16:43:48.083Z,8.02
2023-02-17T16:45:14.969Z,7.43
2023-02-17T16:46:36.917Z,7.05
2023-02-17T16:48:00.243Z,7.13
2023-02-17T16:49:24.676Z,7.63
2023-02-17T16:50:45.556Z,7.40
2023-02-17T16:52:12.565Z,7.57
2023-02-17T16:53:33.097Z,7.43
2023-02-17T16:54:54.122Z,7.05
2023-02-17T16:56:16.770Z,6.75
2023-02-17T16:57:37.524Z,8.15
2023-02-17T16:58:57.920Z,6.18
2023-02-17T17:00:24.136Z,7.53
2023-02-17T17:01:45.540Z,7.20
2023-02-17T17:05:48.631Z,9.75
2023-02-17T17:07:13.832Z,6.13
2023-02-17T17:08:34.156Z,6.50
2023-02-17T17:10:14.843Z,7.05
2023-02-17T17:11:35.555Z,6.57
2023-02-17T17:12:56.852Z,7.03
2023-02-17T17:14:17.477Z,7.88
2023-02-17T17:15:40.349Z,6.43
2023-02-17T17:17:01.843Z,8.13
2023-02-17T17:18:23.782Z,7.47
2023-02-17T17:19:44.371Z,7.72
2023-02-17T17:21:05.488Z,7.50
2023-02-17T17:22:26.316Z,6.93
2023-02-17T17:23:47.068Z,7.30
2023-02-17T17:25:08.250Z,7.35
2023-02-17T17:26:32.114Z,7.43
2023-02-17T17:27:53.577Z,6.90
2023-02-17T17:29:15.669Z,7.28
2023-02-17T17:30:36.380Z,6.78
2023-02-17T17:31:57.094Z,7.25
2023-02-17T17:33:17.773Z,7.88
2023-02-17T17:34:39.526Z,7.70
2023-02-17T17:35:59.992Z,9.50
2023-02-17T17:37:20.656Z,7.10
2023-02-17T17:38:41.030Z,8.80
2023-02-17T17:40:01.395Z,6.93
2023-02-17T17:41:23.165Z,7.65
2023-02-17T17:42:43.731Z,7.90
2023-02-17T17:44:04.564Z,8.70
2023-02-17T17:45:25.614Z,6.93
2023-02-17T17:46:46.034Z,7.85
2023-02-17T17:48:06.854Z,7.05
2023-02-17T17:49:27.418Z,8.13
2023-02-17T17:50:50.215Z,6.68
2023-02-17T17:52:12.665Z,7.45
2023-02-17T17:53:33.543Z,7.28
2023-02-17T17:54:54.257Z,8.50
2023-02-17T17:56:17.729Z,8.07
2023-02-17T17:57:38.417Z,7.85
2023-02-17T17:59:00.983Z,6.63
2023-02-17T18:00:21.703Z,6.72
2023-02-17T18:01:45.149Z,8.20
2023-02-17T18:03:06.339Z,8.77
2023-02-17T18:04:27.103Z,8.73
2023-02-17T18:05:49.358Z,7.87
2023-02-17T18:07:09.941Z,8.40
2023-02-17T18:08:30.730Z,7.23
2023-02-17T18:09:51.257Z,8.15
2023-02-17T18:11:13.306Z,7.22
2023-02-17T18:12:34.430Z,7.57
2023-02-17T18:13:57.440Z,7.65
2023-02-17T18:15:18.798Z,8.23
2023-02-17T18:16:39.596Z,8.10
2023-02-17T18:18:00.225Z,8.55
2023-02-17T18:19:20.585Z,7.47
2023-02-17T18:20:41.214Z,7.93